createdAt,value
2018-03-17T00:00:02.987Z,986.21
2018-03-17T00:01:12.537Z,986.21
2018-03-17T00:02:22.359Z,986.21
2018-03-17T00:03:32.475Z,986.25
2018-03-17T00:04:42.304Z,986.23
2018-03-17T00:05:52.384Z,986.25
2018-03-17T00:07:02.475Z,986.23
2018-03-17T00:08:12.308Z,986.25
2018-03-17T00:09:22.129Z,986.24
2018-03-17T00:10:32.229Z,986.27
2018-03-17T00:11:42.055Z,986.27
2018-03-17T00:12:52.133Z,986.29
2018-03-17T00:14:02.206Z,986.24
2018-03-17T00:15:12.291Z,986.25
2018-03-17T00:16:22.103Z,986.26
2018-03-17T00:17:32.182Z,986.23
2018-03-17T00:18:42.008Z,986.24
2018-03-17T00:19:52.072Z,986.2
2018-03-17T00:21:02.155Z,986.2
2018-03-17T00:22:12.219Z,986.18
2018-03-17T00:23:22.035Z,986.23
2018-03-17T00:24:32.107Z,986.22
2018-03-17T00:25:42.203Z,986.27
2018-03-17T00:26:52.009Z,986.28
2018-03-17T00:28:02.086Z,986.28
2018-03-17T00:29:11.907Z,986.32
2018-03-17T00:30:21.978Z,986.32
2018-03-17T00:31:31.782Z,986.34
2018-03-17T00:32:41.046Z,986.35
2018-03-17T00:33:51.089Z,986.33
2018-03-17T00:35:01.211Z,986.25
2018-03-17T00:36:11.313Z,986.29
2018-03-17T00:37:21.376Z,986.24
2018-03-17T00:38:31.167Z,986.2
2018-03-17T00:39:40.970Z,986.21
2018-03-17T00:40:50.814Z,986.16
2018-03-17T00:42:00.364Z,986.13
2018-03-17T00:43:10.441Z,986.14
2018-03-17T00:44:20.247Z,986.09
2018-03-17T00:45:30.318Z,986.08
2018-03-17T00:46:40.409Z,986.1
2018-03-17T00:47:49.946Z,986.15
2018-03-17T00:48:59.742Z,986.12
2018-03-17T00:50:09.537Z,986.12
2018-03-17T00:51:19.350Z,986.12
2018-03-17T00:52:28.937Z,986.13
2018-03-17T00:53:38.489Z,986.12
2018-03-17T00:54:48.300Z,986.07
2018-03-17T00:55:58.102Z,986.07
2018-03-17T00:57:07.632Z,986.07
2018-03-17T00:58:16.971Z,986.08
2018-03-17T00:59:27.032Z,986.1
2018-03-17T01:00:37.096Z,986.13
2018-03-17T01:01:46.908Z,986.15
2018-03-17T01:02:56.713Z,986.09
2018-03-17T01:04:06.253Z,986.13
2018-03-17T01:05:16.306Z,986.11
2018-03-17T01:06:26.103Z,986.08
2018-03-17T01:07:35.640Z,986.1
2018-03-17T01:08:45.457Z,986.08
2018-03-17T01:09:55.514Z,986.12
2018-03-17T01:11:05.316Z,986.12
2018-03-17T01:12:15.381Z,986.08
2018-03-17T01:13:25.446Z,986.09
2018-03-17T01:14:35.236Z,986.04
2018-03-17T01:15:45.035Z,986.05
2018-03-17T01:16:55.100Z,986.05
2018-03-17T01:18:04.372Z,986.07
2018-03-17T01:19:14.433Z,986.08
2018-03-17T01:20:24.493Z,986.08
2018-03-17T01:21:34.552Z,986.15
2018-03-17T01:22:44.344Z,986.14
2018-03-17T01:23:53.606Z,986.13
2018-03-17T01:25:03.652Z,986.12
2018-03-17T01:26:13.709Z,986.11
2018-03-17T01:27:23.580Z,986.14
2018-03-17T01:28:33.374Z,986.19
2018-03-17T01:29:43.440Z,986.16
2018-03-17T01:30:53.514Z,986.2
2018-03-17T01:32:03.077Z,986.27
2018-03-17T01:33:12.675Z,986.27
2018-03-17T01:34:22.746Z,986.28
2018-03-17T01:35:32.542Z,986.24
2018-03-17T01:36:42.084Z,986.21
2018-03-17T01:37:51.885Z,986.21
2018-03-17T01:39:01.944Z,986.18
2018-03-17T01:40:12.011Z,986.18
2018-03-17T01:41:21.810Z,986.16
2018-03-17T01:42:31.352Z,986.18
2018-03-17T01:43:41.418Z,986.15
2018-03-17T01:44:50.681Z,986.13
2018-03-17T01:45:59.960Z,986.17
2018-03-17T01:47:10.021Z,986.16
2018-03-17T01:48:20.089Z,986.15
2018-03-17T01:49:29.889Z,986.18
2018-03-17T01:50:39.951Z,986.2
2018-03-17T01:51:50.004Z,986.18
2018-03-17T01:53:00.064Z,986.19
2018-03-17T01:54:10.117Z,986.15
2018-03-17T01:55:20.178Z,986.12
2018-03-17T01:56:30.293Z,986.16
2018-03-17T01:57:40.091Z,986.16
2018-03-17T01:58:50.992Z,986.12
2018-03-17T02:00:00.804Z,986.14
2018-03-17T02:01:10.856Z,986.2
2018-03-17T02:02:20.967Z,986.17
2018-03-17T02:03:30.770Z,986.11
2018-03-17T02:04:40.575Z,986.11
2018-03-17T02:05:50.649Z,986.06
2018-03-17T02:07:00.745Z,986.05
2018-03-17T02:08:10.829Z,986.02
2018-03-17T02:09:20.613Z,985.99
2018-03-17T02:10:30.403Z,985.97
2018-03-17T02:11:40.447Z,986.05
2018-03-17T02:12:50.248Z,986.06
2018-03-17T02:14:00.042Z,986.02
2018-03-17T02:15:09.848Z,985.99
2018-03-17T02:16:19.918Z,985.98
2018-03-17T02:17:29.992Z,986.03
2018-03-17T02:18:40.054Z,986.03
2018-03-17T02:19:49.903Z,986.05
2018-03-17T02:20:59.726Z,986.08
2018-03-17T02:22:09.259Z,986.08
2018-03-17T02:23:19.011Z,986.03
2018-03-17T02:24:28.807Z,986.05
2018-03-17T02:25:38.678Z,986.07
2018-03-17T02:26:48.728Z,986.09
2018-03-17T02:27:58.779Z,986.03
2018-03-17T02:29:08.559Z,986.02
2018-03-17T02:30:18.627Z,985.99
2018-03-17T02:31:28.715Z,985.96
2018-03-17T02:32:38.533Z,985.93
2018-03-17T02:33:48.349Z,985.93
2018-03-17T02:34:58.434Z,985.92
2018-03-17T02:36:07.979Z,985.99
2018-03-17T02:37:18.067Z,985.9
2018-03-17T02:38:28.127Z,985.9
2018-03-17T02:39:38.181Z,985.86
2018-03-17T02:40:48.272Z,985.88
2018-03-17T02:41:58.348Z,985.87
2018-03-17T02:43:08.443Z,985.88
2018-03-17T02:44:18.512Z,985.88
2018-03-17T02:45:28.318Z,985.9
2018-03-17T02:46:38.386Z,985.89
2018-03-17T02:47:48.448Z,985.89
2018-03-17T02:48:58.577Z,985.93
2018-03-17T02:50:08.360Z,985.98
2018-03-17T02:51:17.907Z,985.95
2018-03-17T02:52:27.716Z,985.93
2018-03-17T02:53:37.886Z,985.99
2018-03-17T02:54:48.018Z,985.95
2018-03-17T02:55:57.821Z,985.93
2018-03-17T02:57:07.673Z,985.93
2018-03-17T02:58:17.734Z,985.89
2018-03-17T02:59:27.811Z,985.84
2018-03-17T03:00:37.619Z,985.83
2018-03-17T03:01:47.689Z,985.8
2018-03-17T03:02:57.501Z,985.82
2018-03-17T03:04:07.562Z,985.82
2018-03-17T03:05:17.369Z,985.89
2018-03-17T03:06:27.215Z,985.87
2018-03-17T03:07:37.276Z,985.92
2018-03-17T03:39:24.931Z,986.19
2018-03-17T03:40:34.712Z,986.17
2018-03-17T03:41:44.501Z,986.22
2018-03-17T03:42:54.556Z,986.2
2018-03-17T03:44:04.352Z,986.25
2018-03-17T03:45:13.875Z,986.28
2018-03-17T03:46:23.404Z,986.25
2018-03-17T03:47:33.473Z,986.27
2018-03-17T03:48:43.595Z,986.25
2018-03-17T03:49:53.645Z,986.21
2018-03-17T03:51:03.491Z,986.21
2018-03-17T03:52:13.551Z,986.21
2018-03-17T03:53:23.604Z,986.15
2018-03-17T03:54:33.397Z,986.18
2018-03-17T03:55:43.520Z,986.19
2018-03-17T03:56:53.637Z,986.17
2018-03-17T03:58:03.716Z,986.21
2018-03-17T03:59:14.025Z,986.21
2018-03-17T04:00:24.093Z,986.26
2018-03-17T04:01:34.175Z,986.3
2018-03-17T04:02:44.049Z,986.27
2018-03-17T04:03:53.853Z,986.24
2018-03-17T04:05:03.394Z,986.25
2018-03-17T04:06:13.482Z,986.24
2018-03-17T04:07:23.264Z,986.26
2018-03-17T04:08:33.364Z,986.28
2018-03-17T04:09:43.415Z,986.22
2018-03-17T04:10:53.209Z,986.24
2018-03-17T04:12:03.267Z,986.21
2018-03-17T04:13:13.345Z,986.26
2018-03-17T04:14:23.398Z,986.33
2018-03-17T04:15:33.014Z,986.36
2018-03-17T04:16:43.063Z,986.36
2018-03-17T04:17:52.850Z,986.33
2018-03-17T04:19:02.904Z,986.27
2018-03-17T04:20:12.957Z,986.29
2018-03-17T04:21:22.746Z,986.23
2018-03-17T04:22:32.798Z,986.29
2018-03-17T04:23:42.867Z,986.34
2018-03-17T04:24:52.652Z,986.27
2018-03-17T04:26:02.501Z,986.32
2018-03-17T04:27:12.572Z,986.33
2018-03-17T04:28:22.617Z,986.35
2018-03-17T04:29:32.664Z,986.38
2018-03-17T04:30:41.940Z,986.37
2018-03-17T04:31:51.800Z,986.38
2018-03-17T04:33:01.871Z,986.41
2018-03-17T04:34:11.718Z,986.43
2018-03-17T04:35:21.534Z,986.44
2018-03-17T04:36:31.598Z,986.42
2018-03-17T04:37:41.393Z,986.41
2018-03-17T04:38:51.455Z,986.39
2018-03-17T04:40:01.501Z,986.3
2018-03-17T04:41:11.300Z,986.24
2018-03-17T04:42:21.115Z,986.2
2018-03-17T04:43:31.223Z,986.18
2018-03-17T04:44:41.300Z,986.21
2018-03-17T04:45:51.361Z,986.18
2018-03-17T04:47:01.165Z,986.15
2018-03-17T04:48:10.959Z,986.26
2018-03-17T04:49:20.496Z,986.21
2018-03-17T04:50:30.542Z,986.25
2018-03-17T04:51:40.332Z,986.26
2018-03-17T04:52:49.863Z,986.26
2018-03-17T04:53:59.672Z,986.29
2018-03-17T04:55:09.002Z,986.31
2018-03-17T04:56:19.060Z,986.29
2018-03-17T04:57:29.102Z,986.23
2018-03-17T04:58:38.649Z,986.24
2018-03-17T04:59:48.436Z,986.25
2018-03-17T05:00:58.018Z,986.23
2018-03-17T05:02:08.076Z,986.24
2018-03-17T05:03:17.874Z,986.24
2018-03-17T05:04:27.947Z,986.25
2018-03-17T05:05:37.732Z,986.25
2018-03-17T05:06:47.531Z,986.21
2018-03-17T05:07:57.574Z,986.31
2018-03-17T05:09:07.354Z,986.35
2018-03-17T05:10:16.929Z,986.43
2018-03-17T05:11:26.458Z,986.49
2018-03-17T05:12:36.308Z,986.56
2018-03-17T05:13:45.845Z,986.57
2018-03-17T05:14:55.130Z,986.56
2018-03-17T05:16:04.918Z,986.54
2018-03-17T05:17:14.981Z,986.54
2018-03-17T05:18:24.793Z,986.53
2018-03-17T05:19:34.581Z,986.57
2018-03-17T05:20:44.362Z,986.61
2018-03-17T05:21:54.151Z,986.62
2018-03-17T05:23:03.974Z,986.59
2018-03-17T05:24:13.763Z,986.61
2018-03-17T05:25:23.828Z,986.64
2018-03-17T05:26:33.886Z,986.65
2018-03-17T05:27:43.702Z,986.61
2018-03-17T05:28:53.486Z,986.61
2018-03-17T05:30:03.004Z,986.54
2018-03-17T05:31:13.059Z,986.6
2018-03-17T05:32:22.582Z,986.55
2018-03-17T05:33:32.367Z,986.57
2018-03-17T05:34:41.899Z,986.5
2018-03-17T05:35:51.428Z,986.56
2018-03-17T05:37:00.956Z,986.54
2018-03-17T05:38:10.763Z,986.56
2018-03-17T05:39:20.551Z,986.48
2018-03-17T05:40:30.352Z,986.53
2018-03-17T05:41:40.429Z,986.51
2018-03-17T05:42:49.698Z,986.51
2018-03-17T05:43:59.237Z,986.49
2018-03-17T05:45:09.036Z,986.5
2018-03-17T05:46:18.847Z,986.5
2018-03-17T05:47:28.462Z,986.56
2018-03-17T05:48:38.516Z,986.49
2018-03-17T05:49:47.847Z,986.46
2018-03-17T05:50:57.903Z,986.47
2018-03-17T05:52:07.443Z,986.4
2018-03-17T05:53:17.611Z,986.38
2018-03-17T05:54:27.663Z,986.32
2018-03-17T05:55:37.725Z,986.25
2018-03-17T05:56:47.516Z,986.21
2018-03-17T05:57:57.303Z,986.15
2018-03-17T05:59:07.380Z,986.12
2018-03-17T06:00:17.432Z,986.14
2018-03-17T06:01:26.443Z,986.12
2018-03-17T06:02:36.509Z,986.13
2018-03-17T06:03:45.797Z,986.13
2018-03-17T06:04:55.868Z,986.14
2018-03-17T06:06:05.665Z,986.18
2018-03-17T06:07:15.737Z,986.14
2018-03-17T06:08:25.779Z,986.12
2018-03-17T06:09:35.853Z,986.13
2018-03-17T06:10:45.934Z,986.06
2018-03-17T06:11:55.474Z,986.03
2018-03-17T06:13:05.548Z,986.02
2018-03-17T06:14:15.088Z,986
2018-03-17T06:15:24.632Z,985.98
2018-03-17T06:16:34.752Z,986
2018-03-17T06:17:44.281Z,986.01
2018-03-17T06:18:54.086Z,986.05
2018-03-17T06:20:03.610Z,986
2018-03-17T06:21:13.668Z,986.03
2018-03-17T06:22:23.464Z,986
2018-03-17T06:23:33.553Z,986.01
2018-03-17T06:24:43.616Z,986.06
2018-03-17T06:25:53.415Z,986.05
2018-03-17T06:27:02.979Z,986.01
2018-03-17T06:28:13.093Z,986.01
2018-03-17T06:29:23.165Z,986.07
2018-03-17T06:30:32.962Z,986.07
2018-03-17T06:31:43.029Z,986.14
2018-03-17T06:32:52.829Z,986.13
2018-03-17T06:34:02.433Z,986.18
2018-03-17T06:35:12.486Z,986.17
2018-03-17T06:36:22.574Z,986.22
2018-03-17T06:37:31.590Z,986.27
2018-03-17T06:38:41.652Z,986.26
2018-03-17T06:39:51.508Z,986.27
2018-03-17T06:41:01.319Z,986.26
2018-03-17T06:42:11.394Z,986.31
2018-03-17T06:43:21.469Z,986.24
2018-03-17T06:44:31.613Z,986.18
2018-03-17T06:45:41.254Z,986.15
2018-03-17T06:46:51.343Z,986.18
2018-03-17T06:48:01.399Z,986.24
2018-03-17T06:49:11.176Z,986.28
2018-03-17T06:50:20.448Z,986.26
2018-03-17T06:51:30.256Z,986.23
2018-03-17T06:52:40.325Z,986.21
2018-03-17T06:53:50.380Z,986.16
2018-03-17T06:55:00.427Z,986.19
2018-03-17T06:56:10.500Z,986.23
2018-03-17T06:57:20.563Z,986.24
2018-03-17T06:58:30.621Z,986.26
2018-03-17T06:59:40.707Z,986.2
2018-03-17T07:00:50.785Z,986.19
2018-03-17T07:02:00.846Z,986.17
2018-03-17T07:03:10.386Z,986.18
2018-03-17T07:04:19.935Z,986.2
2018-03-17T07:05:30.018Z,986.22
2018-03-17T07:06:39.840Z,986.19
2018-03-17T07:07:49.909Z,986.19
2018-03-17T07:08:59.750Z,986.15
2018-03-17T07:10:09.551Z,986.18
2018-03-17T07:11:19.373Z,986.11
2018-03-17T07:12:28.902Z,986.11
2018-03-17T07:13:38.959Z,986.13
2018-03-17T07:14:48.493Z,986.15
2018-03-17T07:15:58.290Z,986.09
2018-03-17T07:17:08.107Z,986.1
2018-03-17T07:18:18.198Z,986.1
2018-03-17T07:19:28.275Z,986.08
2018-03-17T07:20:38.344Z,986.05
2018-03-17T07:21:48.411Z,986.03
2018-03-17T07:22:58.231Z,986.03
2018-03-17T07:24:08.284Z,985.99
2018-03-17T07:25:18.412Z,985.97
2018-03-17T07:26:27.523Z,986
2018-03-17T07:27:37.608Z,985.98
2018-03-17T07:28:47.691Z,985.99
2018-03-17T07:29:58.034Z,986.07
2018-03-17T07:31:08.094Z,986.09
2018-03-17T07:32:17.937Z,986.1
2018-03-17T07:33:27.752Z,986.05
2018-03-17T07:34:37.840Z,986.03
2018-03-17T07:35:47.624Z,986.02
2018-03-17T07:36:57.677Z,985.99
2018-03-17T07:38:07.537Z,986.04
2018-03-17T07:39:17.682Z,985.97
2018-03-17T07:40:27.472Z,986.05
2018-03-17T07:41:37.275Z,986.06
2018-03-17T07:42:47.378Z,986.09
2018-03-17T07:43:57.230Z,986.08
2018-03-17T07:45:07.305Z,986.08
2018-03-17T07:46:17.103Z,986.06
2018-03-17T07:47:26.908Z,986.01
2018-03-17T07:48:36.982Z,986.02
2018-03-17T07:49:47.065Z,986
2018-03-17T07:50:57.147Z,986
2018-03-17T07:52:06.962Z,985.99
2018-03-17T07:53:16.763Z,985.96
2018-03-17T07:54:26.568Z,986.01
2018-03-17T07:55:36.691Z,985.99
2018-03-17T07:56:46.779Z,985.97
2018-03-17T07:57:56.853Z,985.98
2018-03-17T07:59:06.922Z,985.96
2018-03-17T08:00:17.003Z,986
2018-03-17T08:01:27.177Z,985.99
2018-03-17T08:02:37.246Z,985.97
2018-03-17T08:03:47.340Z,986.04
2018-03-17T08:04:57.166Z,985.99
2018-03-17T08:06:06.682Z,986.01
2018-03-17T08:07:16.483Z,986.01
2018-03-17T08:08:26.291Z,985.98
2018-03-17T08:09:36.100Z,986.03
2018-03-17T08:10:45.929Z,986.03
2018-03-17T08:11:55.496Z,985.99
2018-03-17T08:13:05.303Z,985.96
2018-03-17T08:14:15.361Z,985.93
2018-03-17T08:15:25.193Z,985.88
2018-03-17T08:16:35.234Z,985.9
2018-03-17T08:17:45.324Z,985.88
2018-03-17T08:18:55.383Z,985.89
2018-03-17T08:20:05.438Z,985.91
2018-03-17T08:21:15.527Z,985.89
2018-03-17T08:22:25.593Z,985.89
2018-03-17T08:23:35.704Z,985.86
2018-03-17T08:24:45.831Z,985.86
2018-03-17T08:25:55.905Z,985.84
2018-03-17T08:27:05.435Z,985.9
2018-03-17T08:28:15.566Z,985.89
2018-03-17T08:29:25.390Z,985.82
2018-03-17T08:30:35.539Z,985.85
2018-03-17T08:31:45.066Z,985.86
2018-03-17T08:32:55.130Z,985.82
2018-03-17T08:34:04.416Z,985.85
2018-03-17T08:35:14.386Z,985.82
2018-03-17T08:36:23.932Z,985.78
2018-03-17T08:37:33.995Z,985.79
2018-03-17T08:38:44.068Z,985.73
2018-03-17T08:39:54.138Z,985.72
2018-03-17T08:41:04.189Z,985.63
2018-03-17T08:42:14.254Z,985.55
2018-03-17T08:43:24.332Z,985.56
2018-03-17T08:44:34.126Z,985.57
2018-03-17T08:45:43.401Z,985.51
2018-03-17T08:46:53.547Z,985.52
2018-03-17T08:48:03.347Z,985.54
2018-03-17T08:49:13.424Z,985.48
2018-03-17T08:50:23.481Z,985.44
2018-03-17T08:51:33.577Z,985.44
2018-03-17T08:52:43.659Z,985.47
2018-03-17T08:53:53.770Z,985.47
2018-03-17T08:55:03.844Z,985.47
2018-03-17T08:56:13.398Z,985.52
2018-03-17T08:57:22.922Z,985.51
2018-03-17T08:58:32.722Z,985.49
2018-03-17T08:59:42.601Z,985.51
2018-03-17T09:00:52.673Z,985.52
2018-03-17T09:02:02.196Z,985.55
2018-03-17T09:03:11.745Z,985.52
2018-03-17T09:04:21.544Z,985.57
2018-03-17T09:05:31.690Z,985.54
2018-03-17T09:06:41.754Z,985.55
2018-03-17T09:07:51.562Z,985.49
2018-03-17T09:09:01.397Z,985.45
2018-03-17T09:10:11.486Z,985.49
2018-03-17T09:11:21.547Z,985.53
2018-03-17T09:12:31.344Z,985.45
2018-03-17T09:13:41.170Z,985.46
2018-03-17T09:14:51.272Z,985.39
2018-03-17T09:16:01.068Z,985.44
2018-03-17T09:17:11.182Z,985.37
2018-03-17T09:18:21.255Z,985.39
2018-03-17T09:19:31.343Z,985.36
2018-03-17T09:20:41.433Z,985.32
2018-03-17T09:21:51.245Z,985.29
2018-03-17T09:23:01.151Z,985.3
2018-03-17T09:24:11.220Z,985.29
2018-03-17T09:25:21.466Z,985.19
2018-03-17T09:26:31.017Z,985.2
2018-03-17T09:27:40.836Z,985.19
2018-03-17T09:28:50.953Z,985.24
2018-03-17T09:30:01.079Z,985.25
2018-03-17T09:31:10.896Z,985.28
2018-03-17T09:32:20.984Z,985.24
2018-03-17T09:33:30.784Z,985.25
2018-03-17T09:34:40.636Z,985.27
2018-03-17T09:35:50.597Z,985.29
2018-03-17T09:37:00.136Z,985.29
2018-03-17T09:38:10.198Z,985.23
2018-03-17T09:39:19.778Z,985.26
2018-03-17T09:40:29.317Z,985.25
2018-03-17T09:41:39.139Z,985.23
2018-03-17T09:42:49.250Z,985.21
2018-03-17T09:43:59.081Z,985.19
2018-03-17T09:45:08.646Z,985.2
2018-03-17T09:46:18.194Z,985.23
2018-03-17T09:47:27.732Z,985.19
2018-03-17T09:48:37.853Z,985.18
2018-03-17T09:49:47.396Z,985.17
2018-03-17T09:50:57.192Z,985.15
2018-03-17T09:52:07.010Z,985.13
2018-03-17T09:53:16.354Z,985.13
2018-03-17T09:54:26.422Z,985.15
2018-03-17T09:55:35.973Z,985.17
2018-03-17T09:56:46.044Z,985.19
2018-03-17T09:57:56.126Z,985.16
2018-03-17T09:59:06.193Z,985.18
2018-03-17T10:00:16.055Z,985.23
2018-03-17T10:01:25.362Z,985.23
2018-03-17T10:02:35.184Z,985.25
2018-03-17T10:03:45.006Z,985.31
2018-03-17T10:04:54.558Z,985.28
2018-03-17T10:06:04.357Z,985.32
2018-03-17T10:07:14.160Z,985.34
2018-03-17T10:08:23.981Z,985.34
2018-03-17T10:09:33.801Z,985.31
2018-03-17T10:10:43.867Z,985.32
2018-03-17T10:11:54.006Z,985.31
2018-03-17T10:13:03.814Z,985.33
2018-03-17T10:14:13.855Z,985.31
2018-03-17T10:15:23.923Z,985.32
2018-03-17T10:16:34.016Z,985.29
2018-03-17T10:17:43.628Z,985.31
2018-03-17T10:18:53.461Z,985.3
2018-03-17T10:20:03.008Z,985.24
2018-03-17T10:21:13.062Z,985.24
2018-03-17T10:22:22.868Z,985.28
2018-03-17T10:23:32.227Z,985.31
2018-03-17T10:24:42.144Z,985.25
2018-03-17T10:25:51.962Z,985.25
2018-03-17T10:27:01.233Z,985.22
2018-03-17T10:28:11.047Z,985.2
2018-03-17T10:29:20.982Z,985.19
2018-03-17T10:30:31.250Z,985.21
2018-03-17T10:31:41.322Z,985.24
2018-03-17T10:32:51.388Z,985.22
2018-03-17T10:34:01.542Z,985.22
2018-03-17T10:35:11.551Z,985.21
2018-03-17T10:36:21.122Z,985.18
2018-03-17T10:37:30.765Z,985.2
2018-03-17T10:38:40.327Z,985.19
2018-03-17T10:39:50.193Z,985.22
2018-03-17T10:41:00.364Z,985.2
2018-03-17T10:42:10.443Z,985.18
2018-03-17T10:43:20.736Z,985.2
2018-03-17T10:44:30.844Z,985.23
2018-03-17T10:45:40.905Z,985.18
2018-03-17T10:46:50.696Z,985.16
2018-03-17T10:48:00.486Z,985.16
2018-03-17T10:49:10.296Z,985.14
2018-03-17T10:50:20.350Z,985.1
2018-03-17T10:51:30.144Z,985.09
2018-03-17T10:52:40.195Z,985.14
2018-03-17T10:53:49.790Z,985.12
2018-03-17T10:54:59.879Z,985.14
2018-03-17T10:56:09.934Z,985.11
2018-03-17T10:57:19.745Z,985.12
2018-03-17T10:58:29.602Z,985.07
2018-03-17T10:59:39.420Z,985.04
2018-03-17T11:00:49.220Z,985
2018-03-17T11:01:59.033Z,985.01
2018-03-17T11:03:08.835Z,985.02
2018-03-17T11:04:18.942Z,984.97
2018-03-17T11:05:28.752Z,985.01
2018-03-17T11:06:38.560Z,984.98
2018-03-17T11:07:48.376Z,984.96
2018-03-17T11:08:58.169Z,984.92
2018-03-17T11:10:07.964Z,984.92
2018-03-17T11:11:18.031Z,984.91
2018-03-17T11:12:27.831Z,984.88
2018-03-17T11:13:37.355Z,984.89
2018-03-17T11:14:47.202Z,984.91
2018-03-17T11:15:57.063Z,984.91
2018-03-17T11:17:06.857Z,984.88
2018-03-17T11:18:16.999Z,984.94
2018-03-17T11:19:27.092Z,984.93
2018-03-17T11:20:37.188Z,984.9
2018-03-17T11:21:47.293Z,984.88
2018-03-17T11:22:57.422Z,984.88
2018-03-17T11:24:07.847Z,984.88
2018-03-17T11:25:17.915Z,984.9
2018-03-17T11:26:27.706Z,984.92
2018-03-17T11:27:37.765Z,984.91
2018-03-17T11:28:47.832Z,984.88
2018-03-17T11:29:57.359Z,984.81
2018-03-17T11:31:07.433Z,984.86
2018-03-17T11:32:17.693Z,984.84
2018-03-17T11:33:27.806Z,984.83
2018-03-17T11:34:37.687Z,984.83
2018-03-17T11:35:47.752Z,984.84
2018-03-17T11:36:57.837Z,984.81
2018-03-17T11:38:07.919Z,984.84
2018-03-17T11:39:17.772Z,984.84
2018-03-17T11:40:27.840Z,984.84
2018-03-17T11:41:37.891Z,984.83
2018-03-17T11:42:47.950Z,984.75
2018-03-17T11:43:58.026Z,984.8
2018-03-17T11:45:07.823Z,984.8
2018-03-17T11:46:17.885Z,984.79
2018-03-17T11:47:27.946Z,984.72
2018-03-17T11:48:38.029Z,984.73
2018-03-17T11:49:48.149Z,984.74
2018-03-17T11:50:57.977Z,984.65
2018-03-17T11:52:08.116Z,984.71
2018-03-17T11:53:17.927Z,984.71
2018-03-17T11:54:27.470Z,984.67
2018-03-17T11:55:37.306Z,984.56
2018-03-17T11:56:47.378Z,984.61
2018-03-17T11:57:57.183Z,984.59
2018-03-17T11:59:06.983Z,984.57
2018-03-17T12:00:16.510Z,984.58
2018-03-17T12:01:26.313Z,984.6
2018-03-17T12:02:36.378Z,984.6
2018-03-17T12:03:46.194Z,984.58
2018-03-17T12:04:56.010Z,984.56
2018-03-17T12:06:06.086Z,984.57
2018-03-17T12:07:16.226Z,984.49
2018-03-17T12:08:26.330Z,984.51
2018-03-17T12:09:36.141Z,984.54
2018-03-17T12:10:46.221Z,984.49
2018-03-17T12:11:56.280Z,984.51
2018-03-17T12:13:06.345Z,984.46
2018-03-17T12:14:16.148Z,984.46
2018-03-17T12:15:25.186Z,984.45
2018-03-17T12:16:35.011Z,984.45
2018-03-17T12:17:44.815Z,984.52
2018-03-17T12:18:54.664Z,984.45
2018-03-17T12:20:03.684Z,984.44
2018-03-17T12:21:13.531Z,984.46
2018-03-17T12:22:23.601Z,984.45
2018-03-17T12:23:33.240Z,984.43
2018-03-17T12:24:43.202Z,984.39
2018-03-17T12:25:53.271Z,984.4
2018-03-17T12:27:03.081Z,984.41
2018-03-17T12:28:12.894Z,984.39
2018-03-17T12:29:22.999Z,984.35
2018-03-17T12:30:32.603Z,984.4
2018-03-17T12:31:42.672Z,984.38
2018-03-17T12:32:52.725Z,984.35
2018-03-17T12:34:02.797Z,984.41
2018-03-17T12:35:12.612Z,984.4
2018-03-17T12:36:22.725Z,984.46
2018-03-17T12:37:32.571Z,984.42
2018-03-17T12:38:42.396Z,984.42
2018-03-17T12:39:51.692Z,984.36
2018-03-17T12:41:01.776Z,984.38
2018-03-17T12:42:11.831Z,984.38
2018-03-17T12:43:21.940Z,984.34
2018-03-17T12:44:31.511Z,984.3
2018-03-17T12:45:41.589Z,984.22
2018-03-17T12:46:51.664Z,984.24
2018-03-17T12:48:01.469Z,984.2
2018-03-17T12:49:11.035Z,984.17
2018-03-17T12:50:20.600Z,984.16
2018-03-17T12:51:30.659Z,984.19
2018-03-17T12:52:40.744Z,984.15
2018-03-17T12:53:50.621Z,984.08
2018-03-17T12:55:00.690Z,984.06
2018-03-17T12:56:10.229Z,984.05
2018-03-17T12:57:20.308Z,984.04
2018-03-17T12:58:30.159Z,984
2018-03-17T12:59:40.040Z,984.01
2018-03-17T13:00:49.856Z,983.98
2018-03-17T13:01:59.933Z,983.94
2018-03-17T13:03:10.012Z,983.94
2018-03-17T13:04:20.106Z,983.87
2018-03-17T13:05:29.973Z,983.94
2018-03-17T13:06:39.516Z,983.91
2018-03-17T13:07:49.612Z,983.89
2018-03-17T13:08:59.730Z,983.95
2018-03-17T13:10:09.268Z,983.93
2018-03-17T13:11:19.413Z,983.94
2018-03-17T13:12:29.223Z,983.94
2018-03-17T13:13:39.046Z,983.92
2018-03-17T13:14:49.143Z,983.9
2018-03-17T13:15:58.943Z,983.87
2018-03-17T13:17:09.057Z,983.81
2018-03-17T13:18:19.164Z,983.83
2018-03-17T13:19:28.754Z,983.91
2018-03-17T13:20:38.278Z,983.88
2018-03-17T13:21:48.153Z,983.85
2018-03-17T13:22:58.311Z,983.86
2018-03-17T13:24:07.591Z,983.88
2018-03-17T13:25:17.724Z,983.85
2018-03-17T13:26:27.796Z,983.88
2018-03-17T13:27:37.854Z,983.84
2018-03-17T13:28:47.971Z,983.87
2018-03-17T13:29:57.792Z,983.87
2018-03-17T13:31:07.916Z,983.84
2018-03-17T13:32:17.493Z,983.8
2018-03-17T13:33:27.631Z,983.75
2018-03-17T13:34:37.577Z,983.81
2018-03-17T13:35:47.647Z,983.79
2018-03-17T13:36:57.447Z,983.82
2018-03-17T13:38:07.541Z,983.74
2018-03-17T13:39:17.661Z,983.81
2018-03-17T13:40:27.823Z,983.81
2018-03-17T13:41:37.929Z,983.75
2018-03-17T13:42:47.220Z,983.83
2018-03-17T13:43:57.343Z,983.8
2018-03-17T13:45:07.275Z,983.89
2018-03-17T13:46:17.078Z,983.79
2018-03-17T13:47:27.329Z,983.81
2018-03-17T13:48:37.401Z,983.79
2018-03-17T13:49:47.445Z,983.8
2018-03-17T13:50:57.254Z,983.79
2018-03-17T13:52:06.844Z,983.81
2018-03-17T13:53:16.668Z,983.83
2018-03-17T13:54:26.818Z,983.77
2018-03-17T13:55:36.654Z,983.79
2018-03-17T13:56:46.211Z,983.85
2018-03-17T13:57:56.299Z,983.76
2018-03-17T13:59:06.115Z,983.73
2018-03-17T14:00:16.195Z,983.8
2018-03-17T14:01:26.308Z,983.8
2018-03-17T14:02:36.374Z,983.81
2018-03-17T14:03:46.526Z,983.8
2018-03-17T14:04:56.338Z,983.82
2018-03-17T14:06:06.438Z,983.86
2018-03-17T14:07:16.304Z,983.9
2018-03-17T14:08:26.367Z,983.92
2018-03-17T14:09:36.240Z,983.9
2018-03-17T14:10:46.360Z,983.9
2018-03-17T14:11:56.435Z,983.87
2018-03-17T14:13:05.989Z,983.83
2018-03-17T14:14:15.836Z,983.85
2018-03-17T14:15:25.985Z,983.82
2018-03-17T14:16:35.776Z,983.74
2018-03-17T14:17:45.582Z,983.85
2018-03-17T14:18:55.642Z,983.82
2018-03-17T14:20:05.737Z,983.77
2018-03-17T14:21:15.343Z,983.8
2018-03-17T14:22:25.407Z,983.8
2018-03-17T14:23:35.213Z,983.79
2018-03-17T14:24:45.412Z,983.77
2018-03-17T14:25:54.689Z,983.78
2018-03-17T14:27:04.287Z,983.79
2018-03-17T14:28:14.367Z,983.69
2018-03-17T14:29:24.468Z,983.71
2018-03-17T14:30:34.559Z,983.71
2018-03-17T14:31:44.392Z,983.62
2018-03-17T14:32:53.940Z,983.64
2018-03-17T14:34:04.045Z,983.64
2018-03-17T14:35:14.117Z,983.62
2018-03-17T14:36:24.192Z,983.63
2018-03-17T14:37:34.037Z,983.61
2018-03-17T14:38:43.859Z,983.65
2018-03-17T14:39:53.675Z,983.66
2018-03-17T14:41:03.798Z,983.66
2018-03-17T14:42:13.924Z,983.72
2018-03-17T14:43:24.006Z,983.64
2018-03-17T14:44:34.106Z,983.69
2018-03-17T14:45:43.920Z,983.71
2018-03-17T14:46:54.051Z,983.7
2018-03-17T14:48:03.612Z,983.69
2018-03-17T14:49:13.693Z,983.7
2018-03-17T14:50:23.777Z,983.71
2018-03-17T14:51:33.598Z,983.76
2018-03-17T14:52:43.429Z,983.66
2018-03-17T14:53:53.525Z,983.71
2018-03-17T14:55:03.092Z,983.66
2018-03-17T14:56:13.159Z,983.64
2018-03-17T14:57:23.243Z,983.65
2018-03-17T14:58:33.059Z,983.59
2018-03-17T14:59:42.868Z,983.53
2018-03-17T15:00:52.389Z,983.54
2018-03-17T15:02:02.474Z,983.52
2018-03-17T15:03:12.288Z,983.6
2018-03-17T15:04:22.401Z,983.63
2018-03-17T15:05:32.489Z,983.6